SVMCSKBQ

Guest
Details From SVMC - LA CHINITA INTL
To SKBQ - Ernesto Cortissoz
Flight Number -
Tags generated
Created
Modified
Stats Distance 182 nm / 336 km
Max Altitude 24,500 ft / 7,468 m
Waypoints 5
Social Downloads 0
Likes 0
Share VATSIM

Download

Looking for another format? Having issues loading an existing format? Contact us
Advertisement - Login to hide

Notes

Basic altitude profile: - Ascent Rate: 2500ft/min - Ascent Speed: 250kts - Cruise Altitude: 35000ft - Cruise Speed: 420kts - Descent Rate: 1500ft/min - Descent Speed: 250kts Options: - Use NATs: yes - Use PACOTS: yes - Use low airways: yes - Use high airways: yes

Route

SVMC GAVIS W43 ORTIZ UA552 PETER SKBQ

ID Type Via Altitude Latitude Longitude Leg Dist Tot Dist Heading (true) Name
O SVMC APT - 0 ft / 0 m 10.55821˚ -71.72786˚ - 0 nm - LA CHINITA INTL
GAVIS FIX - 10,400 ft / 3,170 m 10.67142˚ -72.21203˚ 29 nm 29 nm 283° / 283° -
ORTIZ FIX W43 (AWY-LO) 20,800 ft / 6,340 m 10.74278˚ -72.69611˚ 28 nm 58 nm 279° / 278° -
PETER FIX UA552 (AWY-HI) 24,500 ft / 7,468 m 10.77083˚ -73.74361˚ 61 nm 120 nm 272° / 271° -
O SKBQ APT - 0 ft / 0 m 10.88959˚ -74.78082˚ 61 nm 181 nm 277° / 277° Ernesto Cortissoz

Altitude Profile

Advertisement - Login to hide

Weather


0- 5 10 15 20 25 30 35+ Temperature / ° C

Clouds and Precipitation
Forecast for 2017-12-13 06:00 UTC. Updated an hour ago

Ground ~20,000 ft ~40,000 ft Winds

SVMC

Details ICAO SVMC (MAR)
Name LA CHINITA INTL
Region Venezuela
Timezone America/Caracas (UTC-4.0)
Stats Elevation 235 ft / 72 m (AMSL)
Location 10.558208° -71.727858°
Runways 2
Magnetic Variation 9.562° W

METAR

SVMC 130200Z 09003KT 9999 FEW013 26/25 Q1012

Decode

TAF

Not found

Departure Runways

ID Width Length Bearing (true) Bearing (mag) Surface Threshold Offset Overrun Length
02L 148 ft / 45 m 9,897 ft / 3,017 m 22.67° 32.23° Asphalt 0 ft / 0 m 125 ft / 38 m
02R 98 ft / 30 m 8,238 ft / 2,511 m 22.61° 32.17° Asphalt 0 ft / 0 m 0 ft / 0 m
20L 98 ft / 30 m 8,238 ft / 2,511 m 202.62° 212.18° Asphalt 0 ft / 0 m 0 ft / 0 m
20R 148 ft / 45 m 9,897 ft / 3,017 m 202.67° 212.23° Asphalt 0 ft / 0 m 985 ft / 300 m

SKBQ

Details ICAO SKBQ (BAQ)
Name Ernesto Cortissoz
Region Colombia
Timezone America/Bogota (UTC-5.0)
Stats Elevation 98 ft / 30 m (AMSL)
Location 10.889589° -74.780820°
Runways 1
Magnetic Variation 7.727° W

METAR

SKBQ 130200Z 33003KT 9999 SCT015 27/24 A2990

Decode

TAF

Not found

Destination Runways

ID Width Length Bearing (true) Bearing (mag) Surface Threshold Offset Overrun Length
05 148 ft / 45 m 9,863 ft / 3,006 m 40.09° 47.82° Concrete 0 ft / 0 m 105 ft / 32 m
23 148 ft / 45 m 9,863 ft / 3,006 m 220.09° 227.82° Concrete 0 ft / 0 m 0 ft / 0 m

Approach Navaids

Runway Type Ident Frequency Range Bearing (true) Bearing (mag) Slope Elevation
05 Localiser IBAQ 109.90 MHz 18 nm / 33 km 39.98° 47.71° - 98 ft / 30 m (AMSL)
05 Glidescope IBAQ 109.90 MHz 10 nm / 19 km 40.09° 47.82° 3.00° 98 ft / 30 m (AMSL)

Popular Alternatives